Time;durP1;ratioP1;P1;durP2;ratioP2;P2;SDS_P1;SDS_P2;PMS_P1;PMS_P2;Temp;Humidity;BMP_temperature;BMP_pressure;BME280_temperature;BME280_humidity;BME280_pressure;Samples;Min_cycle;Max_cycle;Signal;HPM_P1;HPM_P2
2023/01/02 00:01:07;;;;;;;30.30;19.62;;;;;;;15.36;53.75;100932.37;4484855;32;34192;-72
2023/01/02 00:03:35;;;;;;;31.02;19.40;;;;;;;15.02;54.76;100930.88;4481289;31;33422;-73
2023/01/02 00:06:04;;;;;;;34.33;21.12;;;;;;;15.26;53.93;100932.78;4484559;32;34088;-72
2023/01/02 00:08:31;;;;;;;32.80;19.98;;;;;;;13.70;57.89;100942.81;4485410;31;33555;-72
2023/01/02 00:10:59;;;;;;;33.53;20.25;;;;;;;14.19;56.69;100932.19;4484164;32;34243;-72
2023/01/02 00:13:27;;;;;;;33.13;19.55;;;;;;;14.14;56.62;100941.53;4484987;31;34524;-72
2023/01/02 00:15:54;;;;;;;34.65;21.70;;;;;;;14.29;56.17;100933.53;4484460;32;34683;-72
2023/01/02 00:18:22;;;;;;;35.05;23.90;;;;;;;14.39;55.54;100934.88;4484738;32;33451;-72
2023/01/02 00:20:50;;;;;;;36.50;21.65;;;;;;;14.28;55.64;100929.16;4484409;32;33740;-72
2023/01/02 00:23:17;;;;;;;29.48;18.58;;;;;;;14.66;53.96;100925.78;4484607;31;33590;-72
2023/01/02 00:25:47;;;;;;;31.62;18.58;;;;;;;14.36;54.64;100936.50;4482564;32;34886;-72
2023/01/02 00:28:14;;;;;;;29.98;18.60;;;;;;;14.13;55.43;100924.09;4482034;32;34233;-72
2023/01/02 00:30:42;;;;;;;36.83;20.67;;;;;;;14.16;55.54;100925.16;4484566;32;34779;-72
2023/01/02 00:33:09;;;;;;;30.65;19.25;;;;;;;14.18;55.36;100925.22;4484249;32;33453;-72
2023/01/02 00:35:37;;;;;;;31.98;19.00;;;;;;;13.82;55.98;100930.41;4485293;31;33781;-72
2023/01/02 00:38:05;;;;;;;32.05;20.95;;;;;;;13.70;56.35;100930.69;4484572;32;33928;-72
2023/01/02 00:40:33;;;;;;;33.40;21.35;;;;;;;13.20;57.09;100934.16;4484881;31;34608;-72
2023/01/02 00:43:01;;;;;;;36.25;22.45;;;;;;;12.49;59.25;100934.69;4483280;31;33729;-72
2023/01/02 00:45:28;;;;;;;35.13;19.83;;;;;;;12.84;58.28;100930.50;4484676;31;35404;-72
2023/01/02 00:47:56;;;;;;;35.80;19.73;;;;;;;12.76;59.41;100932.69;4486617;31;33785;-72
2023/01/02 00:50:23;;;;;;;36.20;22.52;;;;;;;12.97;58.80;100932.97;4491993;31;33852;-72
2023/01/02 00:52:51;;;;;;;35.72;22.60;;;;;;;13.50;56.96;100937.50;4482095;31;33802;-72
2023/01/02 00:55:19;;;;;;;35.47;21.58;;;;;;;13.39;56.97;100943.88;4493657;31;34285;-72
2023/01/02 00:57:46;;;;;;;34.85;20.35;;;;;;;13.99;54.74;100938.19;4484702;32;33882;-72
2023/01/02 01:00:14;;;;;;;30.65;19.00;;;;;;;14.05;54.33;100943.69;4478168;31;33555;-72
2023/01/02 01:02:57;;;;;;;29.12;18.08;;;;;;;14.04;53.89;100947.09;4487253;31;33337;-72
2023/01/02 01:05:25;;;;;;;25.92;16.27;;;;;;;14.17;53.59;100939.06;4486238;31;34687;-72
2023/01/02 01:07:54;;;;;;;30.67;17.40;;;;;;;14.06;53.32;100935.94;4494375;31;33791;-72
2023/01/02 01:10:22;;;;;;;27.13;17.23;;;;;;;13.72;54.19;100928.16;4484634;31;34003;-72
2023/01/02 01:12:50;;;;;;;28.42;16.98;;;;;;;11.84;59.68;100938.81;4488396;31;33845;-72
2023/01/02 01:15:18;;;;;;;36.92;17.40;;;;;;;12.62;57.87;100931.94;4466866;31;34041;-72
2023/01/02 01:17:45;;;;;;;62.38;19.10;;;;;;;11.80;59.93;100931.63;4489306;31;34429;-72
2023/01/02 01:20:13;;;;;;;58.70;20.60;;;;;;;10.78;63.14;100932.50;4480992;31;34012;-72
2023/01/02 01:22:40;;;;;;;50.75;20.55;;;;;;;10.90;63.76;100945.31;4497261;31;34468;-72
2023/01/02 01:25:08;;;;;;;63.63;20.48;;;;;;;10.90;63.06;100940.12;4492142;31;34477;-72
2023/01/02 01:27:36;;;;;;;33.72;18.33;;;;;;;11.34;62.55;100947.12;4487190;31;34555;-72
2023/01/02 01:30:05;;;;;;;61.42;20.00;;;;;;;12.26;59.53;100930.81;4482915;31;34062;-72
2023/01/02 01:32:33;;;;;;;39.15;18.20;;;;;;;12.33;59.18;100938.16;4486519;31;34306;-72
2023/01/02 01:35:01;;;;;;;43.83;18.37;;;;;;;12.69;58.53;100926.28;4484406;32;34172;-72
2023/01/02 01:37:29;;;;;;;57.28;19.33;;;;;;;12.20;59.88;100929.66;4484297;32;33408;-72
2023/01/02 01:39:56;;;;;;;44.83;19.37;;;;;;;12.10;59.87;100916.97;4484080;32;34100;-72
2023/01/02 01:42:23;;;;;;;57.28;19.62;;;;;;;12.69;57.78;100910.69;4486132;31;34102;-72
2023/01/02 01:44:53;;;;;;;35.83;19.83;;;;;;;12.34;58.53;100911.34;4487923;31;34227;-72
2023/01/02 01:47:52;;;;;;;34.45;20.20;;;;;;;13.30;55.65;100891.34;4485051;31;33633;-72
2023/01/02 01:50:28;;;;;;;56.03;21.08;;;;;;;13.29;55.25;100889.50;4484227;32;32750;-72
2023/01/02 01:53:17;;;;;;;102.40;21.30;;;;;;;12.16;57.14;100895.63;4480943;32;33522;-72
2023/01/02 01:55:49;;;;;;;58.15;18.85;;;;;;;11.96;59.07;100895.41;4484811;31;33480;-72
2023/01/02 01:58:23;;;;;;;38.67;19.02;;;;;;;11.99;58.76;100887.81;4475101;31;32784;-72
2023/01/02 02:00:52;;;;;;;56.25;19.48;;;;;;;12.79;56.22;100875.69;4483090;31;34437;-72
2023/01/02 02:03:23;;;;;;;93.65;21.48;;;;;;;12.25;57.85;100874.50;4486724;31;33512;-72
2023/01/02 02:05:51;;;;;;;61.90;19.90;;;;;;;12.29;58.10;100877.31;4481701;32;33733;-72
2023/01/02 02:08:22;;;;;;;40.50;18.83;;;;;;;12.18;58.51;100887.09;4483667;32;34183;-72
2023/01/02 02:10:50;;;;;;;81.78;21.23;;;;;;;12.90;56.61;100878.81;4483802;32;34021;-72
2023/01/02 02:13:20;;;;;;;37.28;20.08;;;;;;;12.39;58.17;100879.59;4486065;31;33614;-72
2023/01/02 02:16:48;;;;;;;56.47;22.25;;;;;;;13.04;56.30;100871.72;4482769;31;33933;-72
2023/01/02 02:19:43;;;;;;;52.78;23.52;;;;;;;12.93;56.66;100868.59;4454145;32;33246;-72
2023/01/02 02:22:13;;;;;;;95.45;23.20;;;;;;;13.28;55.32;100872.13;4483150;31;34790;-72
2023/01/02 02:24:55;;;;;;;60.97;20.58;;;;;;;13.37;55.18;100862.22;4483795;32;33162;-72
2023/01/02 02:27:50;;;;;;;85.90;22.65;;;;;;;12.32;57.89;100859.31;4487912;31;34661;-72
2023/01/02 02:30:24;;;;;;;79.12;23.30;;;;;;;12.15;59.09;100854.91;4481786;32;33774;-72
2023/01/02 02:33:17;;;;;;;35.78;20.20;;;;;;;12.66;57.38;100842.94;4483913;31;34237;-72
2023/01/02 02:35:53;;;;;;;59.30;21.92;;;;;;;13.28;55.68;100851.31;4484697;31;33782;-72
2023/01/02 02:38:26;;;;;;;96.60;23.98;;;;;;;12.66;57.46;100853.31;4483900;32;33940;-72
2023/01/02 02:41:03;;;;;;;60.20;21.60;;;;;;;12.81;57.03;100861.06;4484458;31;34034;-72
2023/01/02 02:43:49;;;;;;;121.05;23.10;;;;;;;12.95;56.87;100861.75;4479493;32;33886;-72
2023/01/02 02:46:50;;;;;;;115.65;23.40;;;;;;;13.08;56.41;100859.00;4486494;31;34408;-72
2023/01/02 02:49:36;;;;;;;121.43;23.62;;;;;;;12.45;58.19;100857.37;4429556;31;34003;-72
2023/01/02 02:52:07;;;;;;;104.25;21.92;;;;;;;12.23;59.03;100861.41;4489732;31;34054;-72
2023/01/02 02:54:48;;;;;;;173.93;26.33;;;;;;;12.53;58.32;100856.06;4484041;32;34151;-72
2023/01/02 02:57:16;;;;;;;111.75;25.95;;;;;;;12.60;58.08;100863.41;4490619;31;34484;-72
2023/01/02 02:59:44;;;;;;;55.65;23.02;;;;;;;12.27;59.23;100858.16;4483765;32;33772;-72
2023/01/02 03:02:14;;;;;;;80.40;23.12;;;;;;;12.87;57.37;100855.28;4483982;31;33918;-72
2023/01/02 03:04:44;;;;;;;50.33;21.75;;;;;;;12.99;57.15;100846.38;4492386;31;32776;-72
2023/01/02 03:07:20;;;;;;;73.12;22.13;;;;;;;13.57;55.72;100840.66;4480042;31;33800;-72
2023/01/02 03:10:15;;;;;;;131.45;24.25;;;;;;;13.36;56.11;100842.19;4488216;31;34793;-72
2023/01/02 03:12:54;;;;;;;73.93;23.83;;;;;;;12.82;57.74;100841.13;4482733;31;33972;-72
2023/01/02 03:15:34;;;;;;;45.92;20.90;;;;;;;13.57;55.73;100835.44;4479343;31;33614;-72
2023/01/02 03:18:29;;;;;;;73.55;23.30;;;;;;;12.99;56.82;100837.69;4483868;31;33745;-72
2023/01/02 03:21:03;;;;;;;47.85;21.75;;;;;;;12.79;58.58;100834.97;4479091;31;34542;-72
2023/01/02 03:23:35;;;;;;;115.95;22.75;;;;;;;13.69;55.65;100845.56;4484555;31;34466;-72
2023/01/02 03:26:04;;;;;;;75.78;22.87;;;;;;;13.68;56.20;100843.81;4481863;31;34847;-72
2023/01/02 03:28:31;;;;;;;48.78;21.90;;;;;;;13.47;56.25;100843.63;4494381;31;33416;-72
2023/01/02 03:31:00;;;;;;;45.90;20.90;;;;;;;13.91;55.62;100842.31;4487628;31;34454;-72
2023/01/02 03:33:31;;;;;;;52.67;21.00;;;;;;;14.42;53.56;100825.53;4486039;31;34014;-72
2023/01/02 03:36:02;;;;;;;139.70;24.12;;;;;;;14.33;54.30;100820.78;4485681;31;33326;-72
2023/01/02 03:38:43;;;;;;;97.25;22.50;;;;;;;13.49;56.43;100839.41;4487381;31;34395;-72
2023/01/02 03:41:17;;;;;;;111.93;22.92;;;;;;;12.95;57.93;100835.75;4492967;31;33985;-72
2023/01/02 03:43:47;;;;;;;80.45;22.35;;;;;;;12.14;60.68;100845.31;4499330;31;34726;-72
2023/01/02 03:46:30;;;;;;;49.05;23.50;;;;;;;12.07;61.41;100843.16;4481634;31;34818;-72
2023/01/02 03:49:06;;;;;;;70.75;23.27;;;;;;;13.66;56.75;100844.56;4482499;31;34611;-72
2023/01/02 03:51:34;;;;;;;54.63;22.25;;;;;;;13.30;57.65;100844.50;4489350;31;33708;-72
2023/01/02 03:54:03;;;;;;;84.93;23.73;;;;;;;13.49;58.14;100843.72;4470888;32;33935;-72
2023/01/02 03:56:41;;;;;;;46.10;22.85;;;;;;;13.61;57.71;100844.31;4486481;31;33719;-72
2023/01/02 03:59:15;;;;;;;45.22;22.75;;;;;;;13.29;59.24;100847.88;4482483;31;33484;-72
2023/01/02 04:01:51;;;;;;;46.60;21.27;;;;;;;14.75;55.66;100836.63;4485256;31;33986;-72
2023/01/02 04:04:21;;;;;;;46.03;22.05;;;;;;;14.27;56.63;100847.44;4494616;31;34279;-72
2023/01/02 04:06:54;;;;;;;46.20;21.90;;;;;;;13.35;58.75;100845.62;4489881;31;34137;-72
2023/01/02 04:09:25;;;;;;;40.25;20.55;;;;;;;13.06;61.06;100845.00;4490407;31;33569;-73
2023/01/02 04:11:58;;;;;;;38.55;21.33;;;;;;;12.68;63.30;100840.41;4491568;31;34018;-72
2023/01/02 04:14:39;;;;;;;43.20;21.80;;;;;;;12.26;66.59;100839.88;4484251;32;33937;-72
2023/01/02 04:17:07;;;;;;;42.10;20.83;;;;;;;12.63;65.46;100837.56;4489388;31;34707;-72
2023/01/02 04:19:42;;;;;;;39.20;20.60;;;;;;;13.18;64.20;100843.03;4475679;31;33724;-72
2023/01/02 04:22:13;;;;;;;41.40;20.62;;;;;;;12.94;65.69;100839.16;4495050;31;34917;-72
2023/01/02 04:24:45;;;;;;;44.58;23.15;;;;;;;12.86;66.14;100841.38;4486255;31;35351;-72
2023/01/02 04:27:18;;;;;;;54.45;23.10;;;;;;;12.13;68.91;100839.22;4483569;31;34202;-72
2023/01/02 04:29:45;;;;;;;45.97;21.52;;;;;;;13.43;66.00;100852.12;4488611;31;33436;-72
2023/01/02 04:32:20;;;;;;;43.80;21.67;;;;;;;14.51;62.47;100846.81;4491148;31;34571;-72
2023/01/02 04:34:48;;;;;;;46.42;21.65;;;;;;;13.13;66.08;100857.53;4487928;31;33398;-72
2023/01/02 04:37:32;;;;;;;45.15;21.50;;;;;;;12.82;67.62;100859.34;4480093;31;33895;-72
2023/01/02 04:40:10;;;;;;;50.78;21.25;;;;;;;13.34;66.42;100862.94;4493834;31;34437;-72
2023/01/02 04:42:37;;;;;;;51.95;21.92;;;;;;;13.41;65.50;100863.28;4481477;31;34444;-72
2023/01/02 04:45:06;;;;;;;50.83;21.67;;;;;;;14.05;63.82;100865.53;4492061;31;33501;-72
2023/01/02 04:47:34;;;;;;;41.70;20.55;;;;;;;12.98;66.87;100855.03;4475543;31;34584;-72
2023/01/02 04:50:03;;;;;;;42.75;21.73;;;;;;;13.48;65.13;100855.84;4478252;31;33816;-72
2023/01/02 04:52:31;;;;;;;43.87;21.25;;;;;;;13.24;65.82;100859.78;4479089;31;33956;-72
2023/01/02 04:55:07;;;;;;;52.88;21.75;;;;;;;14.16;63.84;100853.91;4483823;31;34635;-72
2023/01/02 04:57:36;;;;;;;43.17;21.55;;;;;;;13.23;66.25;100852.78;4486125;31;33153;-72
2023/01/02 05:00:05;;;;;;;39.22;20.08;;;;;;;13.54;65.11;100857.84;4484807;31;33409;-72
2023/01/02 05:02:36;;;;;;;44.63;21.83;;;;;;;12.71;67.75;100862.28;4484117;31;33896;-72
2023/01/02 05:05:08;;;;;;;40.92;21.35;;;;;;;13.62;65.32;100864.34;4483684;31;33968;-72
2023/01/02 05:07:36;;;;;;;40.83;21.67;;;;;;;13.09;66.35;100858.16;4491138;31;34536;-72
2023/01/02 05:10:05;;;;;;;41.80;21.00;;;;;;;14.49;62.45;100849.34;4476250;31;33498;-72
2023/01/02 05:12:34;;;;;;;41.50;21.15;;;;;;;14.57;61.88;100847.13;4478309;32;34735;-72
2023/01/02 05:15:03;;;;;;;41.67;20.15;;;;;;;13.00;66.30;100857.72;4496488;31;35330;-72
2023/01/02 05:17:38;;;;;;;46.67;21.37;;;;;;;12.82;67.58;100859.34;4487438;31;34657;-72
2023/01/02 05:20:09;;;;;;;44.17;21.23;;;;;;;13.21;66.05;100859.59;4485477;31;34485;-72
2023/01/02 05:25:26;;;;;;;41.88;21.37;;;;;;;12.66;68.04;100850.72;4493892;31;33779;-72
2023/01/02 05:27:54;;;;;;;39.85;21.50;;;;;;;13.68;65.03;100855.94;4497709;31;34719;-72
2023/01/02 05:30:22;;;;;;;40.97;20.65;;;;;;;13.61;65.16;100851.25;4485669;31;34100;-72
2023/01/02 05:32:49;;;;;;;38.05;20.25;;;;;;;13.68;65.07;100848.13;4496057;31;34518;-72
2023/01/02 05:35:17;;;;;;;41.15;21.05;;;;;;;13.76;64.69;100857.19;4497619;31;33995;-72
2023/01/02 05:37:45;;;;;;;40.10;20.23;;;;;;;13.04;66.86;100857.03;4498699;31;34830;-72
2023/01/02 05:40:12;;;;;;;40.28;21.50;;;;;;;14.57;62.42;100841.91;4492409;31;33310;-72
2023/01/02 05:42:40;;;;;;;41.03;20.30;;;;;;;13.78;64.19;100850.34;4490244;31;34766;-72
2023/01/02 05:45:08;;;;;;;37.17;19.75;;;;;;;13.99;63.25;100852.22;4496363;31;34583;-72
2023/01/02 05:47:37;;;;;;;39.95;19.90;;;;;;;14.36;62.31;100850.50;4484595;31;33891;-72
2023/01/02 05:50:06;;;;;;;39.35;21.10;;;;;;;13.59;64.29;100847.66;4484330;31;33698;-72
2023/01/02 05:52:34;;;;;;;38.67;18.62;;;;;;;13.03;66.46;100843.97;4484074;32;33994;-73
2023/01/02 05:55:08;;;;;;;37.60;19.15;;;;;;;13.01;66.89;100851.69;4483487;32;33821;-72
2023/01/02 05:57:35;;;;;;;39.40;19.25;;;;;;;13.72;65.04;100852.66;4485402;31;34104;-72
2023/01/02 06:00:03;;;;;;;43.67;20.15;;;;;;;13.08;66.75;100843.37;4492651;31;33553;-72
2023/01/02 06:02:39;;;;;;;38.03;18.90;;;;;;;14.06;63.52;100844.75;4484453;32;34440;-72
2023/01/02 06:05:14;;;;;;;33.33;17.52;;;;;;;13.90;64.28;100863.94;4482944;32;34530;-72
2023/01/02 06:07:43;;;;;;;35.15;17.87;;;;;;;14.64;61.44;100848.28;4489641;31;34333;-72
2023/01/02 06:10:10;;;;;;;34.70;19.02;;;;;;;13.51;64.60;100855.97;4484074;31;33179;-72
2023/01/02 06:12:38;;;;;;;41.97;20.37;;;;;;;14.22;62.66;100848.97;4484199;32;34691;-72
2023/01/02 06:15:07;;;;;;;37.70;20.70;;;;;;;14.35;61.93;100846.13;4483943;32;34417;-72
2023/01/02 06:17:35;;;;;;;35.47;18.02;;;;;;;14.36;61.48;100842.69;4494478;31;33686;-72
2023/01/02 06:20:03;;;;;;;37.83;18.65;;;;;;;14.14;62.21;100850.34;4492092;31;33829;-72
2023/01/02 06:22:30;;;;;;;34.13;17.73;;;;;;;13.60;63.86;100846.84;4486823;31;34493;-72
2023/01/02 06:24:58;;;;;;;41.67;19.00;;;;;;;14.00;62.94;100843.56;4493283;31;34020;-72
2023/01/02 06:27:26;;;;;;;33.38;17.87;;;;;;;13.86;63.42;100854.22;4492999;31;33824;-73
2023/01/02 06:29:53;;;;;;;35.38;18.60;;;;;;;14.26;62.33;100850.91;4488277;31;33816;-73
2023/01/02 06:32:20;;;;;;;37.42;18.73;;;;;;;14.15;62.49;100853.00;4483865;31;33672;-74
2023/01/02 06:34:48;;;;;;;37.15;18.77;;;;;;;13.63;63.73;100850.47;4488296;31;34688;-73
2023/01/02 06:37:16;;;;;;;35.10;18.40;;;;;;;13.37;65.00;100851.81;4488659;31;33723;-72
2023/01/02 06:39:43;;;;;;;38.83;20.08;;;;;;;13.53;64.05;100864.75;4485697;31;34448;-73
2023/01/02 06:42:11;;;;;;;38.00;19.70;;;;;;;13.52;64.42;100856.88;4481728;31;34010;-73
2023/01/02 06:44:40;;;;;;;37.95;20.17;;;;;;;13.84;63.56;100848.03;4479932;31;34400;-73
2023/01/02 06:47:07;;;;;;;32.28;17.42;;;;;;;13.88;63.15;100857.78;4486253;31;33851;-72
2023/01/02 06:49:35;;;;;;;35.45;18.42;;;;;;;13.87;63.09;100855.09;4496376;31;33157;-72
2023/01/02 06:52:03;;;;;;;35.42;19.05;;;;;;;13.28;65.11;100862.59;4488758;31;33960;-73
2023/01/02 06:54:31;;;;;;;38.33;18.05;;;;;;;13.55;63.71;100855.31;4483572;32;34730;-73
2023/01/02 06:56:59;;;;;;;30.50;17.77;;;;;;;13.70;63.86;100856.91;4488293;31;34992;-73
2023/01/02 06:59:27;;;;;;;34.22;18.67;;;;;;;13.69;64.58;100862.91;4488887;31;33396;-72
2023/01/02 07:01:54;;;;;;;33.13;17.95;;;;;;;13.74;63.65;100859.72;4482763;31;33932;-73
2023/01/02 07:04:22;;;;;;;42.60;19.10;;;;;;;13.66;63.89;100868.00;4479154;32;147484;-72
2023/01/02 07:06:50;;;;;;;40.88;18.58;;;;;;;14.11;62.91;100871.03;4483642;32;33858;-72
2023/01/02 07:09:17;;;;;;;43.33;19.67;;;;;;;13.89;63.09;100869.12;4488553;31;33680;-72
2023/01/02 07:11:45;;;;;;;38.45;18.48;;;;;;;13.99;62.95;100876.53;4486133;31;33916;-72
2023/01/02 07:14:13;;;;;;;36.03;19.15;;;;;;;14.18;62.29;100872.19;4497843;31;33732;-72
2023/01/02 07:16:40;;;;;;;33.88;17.70;;;;;;;15.00;59.75;100872.50;4500137;31;33929;-72
2023/01/02 07:19:08;;;;;;;35.05;18.27;;;;;;;14.28;61.33;100875.31;4492717;31;33770;-73
2023/01/02 07:21:35;;;;;;;30.35;16.85;;;;;;;14.38;61.47;100870.53;4490980;31;35127;-73
2023/01/02 07:24:03;;;;;;;33.45;18.83;;;;;;;14.15;62.24;100883.38;4492281;31;33798;-73
2023/01/02 07:26:31;;;;;;;35.97;19.00;;;;;;;14.91;59.64;100877.31;4496811;31;34104;-73
2023/01/02 07:28:58;;;;;;;39.38;19.67;;;;;;;14.68;60.41;100871.97;4491966;31;33569;-72
2023/01/02 07:31:28;;;;;;;33.65;18.17;;;;;;;14.90;59.63;100881.66;4495694;31;33740;-72
2023/01/02 07:33:57;;;;;;;32.85;17.83;;;;;;;14.73;60.16;100880.00;4494900;31;34467;-72
2023/01/02 07:36:24;;;;;;;35.83;19.65;;;;;;;14.52;60.86;100879.88;4493879;31;34712;-73
2023/01/02 07:38:53;;;;;;;38.30;18.80;;;;;;;14.31;61.77;100883.28;4495519;31;34351;-72
2023/01/02 07:41:23;;;;;;;40.10;19.60;;;;;;;14.25;61.90;100879.50;4497163;31;33210;-73
2023/01/02 07:43:53;;;;;;;37.60;18.92;;;;;;;14.00;62.70;100880.03;4498077;31;33916;-72
2023/01/02 07:46:22;;;;;;;36.00;18.05;;;;;;;14.59;60.88;100882.00;4496151;31;33396;-72
2023/01/02 07:48:50;;;;;;;33.28;17.42;;;;;;;13.38;64.93;100874.41;4488056;31;33405;-72
2023/01/02 07:51:17;;;;;;;38.38;19.02;;;;;;;13.54;65.44;100879.56;4487417;31;34043;-72
2023/01/02 07:53:55;;;;;;;36.08;18.55;;;;;;;13.31;65.94;100872.31;4487361;31;33680;-73
2023/01/02 07:56:24;;;;;;;42.42;21.42;;;;;;;13.00;67.08;100881.13;4492617;31;33910;-72
2023/01/02 07:58:52;;;;;;;39.03;20.08;;;;;;;13.73;64.84;100883.06;4488727;31;33835;-73
2023/01/02 08:01:19;;;;;;;42.78;19.60;;;;;;;14.31;62.64;100880.69;4466957;31;32444;-72
2023/01/02 08:03:47;;;;;;;38.40;19.15;;;;;;;14.68;61.28;100871.97;4491907;31;33928;-72
2023/01/02 08:06:16;;;;;;;37.33;19.20;;;;;;;13.72;63.89;100876.09;4485533;32;34188;-72
2023/01/02 08:08:44;;;;;;;38.13;19.98;;;;;;;14.15;63.24;100883.38;4495020;31;33640;-72
2023/01/02 08:11:18;;;;;;;35.28;20.20;;;;;;;13.95;63.88;100883.31;4497616;31;34525;-72
2023/01/02 08:13:46;;;;;;;36.03;18.58;;;;;;;14.15;63.24;100867.75;4493989;31;33444;-72
2023/01/02 08:16:16;;;;;;;36.13;18.27;;;;;;;14.13;63.41;100869.38;4492750;31;34642;-72
2023/01/02 08:18:45;;;;;;;37.03;18.33;;;;;;;13.83;64.22;100874.00;4490648;31;34318;-72
2023/01/02 08:21:13;;;;;;;40.33;19.60;;;;;;;13.55;65.05;100878.75;4484744;31;33984;-72
2023/01/02 08:23:41;;;;;;;37.80;19.58;;;;;;;14.30;63.32;100868.47;4490963;31;33986;-72
2023/01/02 08:26:09;;;;;;;36.47;19.17;;;;;;;14.49;62.91;100874.53;4489692;31;33860;-72
2023/01/02 08:28:38;;;;;;;32.28;18.02;;;;;;;14.66;62.28;100871.03;4496615;31;33237;-72
2023/01/02 08:31:12;;;;;;;35.85;18.23;;;;;;;14.22;63.57;100868.94;4494865;31;34548;-73
2023/01/02 08:33:40;;;;;;;39.28;19.10;;;;;;;13.88;65.02;100881.22;4485487;31;33930;-73
2023/01/02 08:36:08;;;;;;;38.10;19.40;;;;;;;13.77;65.30;100875.50;4490113;31;33379;-72
2023/01/02 08:38:35;;;;;;;38.05;19.37;;;;;;;13.98;64.58;100884.28;4488595;31;33643;-72
2023/01/02 08:41:04;;;;;;;41.17;20.27;;;;;;;14.34;62.96;100880.81;4486457;31;34539;-72
2023/01/02 08:43:34;;;;;;;33.78;17.73;;;;;;;14.52;62.85;100874.66;4493697;31;33478;-72
2023/01/02 08:46:03;;;;;;;37.42;18.62;;;;;;;13.76;65.02;100889.31;4491880;31;33872;-72
2023/01/02 08:48:32;;;;;;;35.40;17.87;;;;;;;13.71;65.67;100892.53;4485772;31;34242;-72
2023/01/02 08:51:00;;;;;;;37.00;18.85;;;;;;;13.86;65.56;100895.00;4494122;31;33674;-72
2023/01/02 08:53:28;;;;;;;38.63;18.90;;;;;;;14.32;63.79;100894.59;4485779;31;33794;-72
2023/01/02 08:56:18;;;;;;;38.58;19.60;;;;;;;14.56;63.08;100884.41;4490022;31;33969;-72
2023/01/02 08:58:53;;;;;;;39.08;18.67;;;;;;;14.42;63.27;100893.31;4485193;31;34130;-72
2023/01/02 09:01:22;;;;;;;39.08;17.90;;;;;;;14.92;61.66;100887.81;4497453;31;34434;-72
2023/01/02 09:03:51;;;;;;;37.95;18.02;;;;;;;14.73;61.89;100891.31;4485043;31;34780;-71
2023/01/02 09:06:19;;;;;;;35.60;18.58;;;;;;;15.09;61.02;100883.34;4495159;31;34071;-72
2023/01/02 09:08:51;;;;;;;39.05;18.02;;;;;;;14.44;63.41;100881.25;4495952;31;32867;-71
2023/01/02 09:11:28;;;;;;;41.15;20.77;;;;;;;13.92;64.97;100888.34;4492597;31;33298;-72
2023/01/02 09:13:57;;;;;;;37.63;18.98;;;;;;;13.11;67.49;100885.13;4493309;31;33696;-71
2023/01/02 09:16:25;;;;;;;35.38;17.75;;;;;;;14.30;63.59;100883.22;4494916;31;34750;-72
2023/01/02 09:18:56;;;;;;;36.97;18.83;;;;;;;13.60;66.04;100886.81;4483374;31;33290;-70
2023/01/02 09:21:24;;;;;;;40.22;18.62;;;;;;;13.49;67.33;100880.16;4487292;31;33773;-71
2023/01/02 09:23:52;;;;;;;38.33;19.95;;;;;;;13.56;66.50;100880.53;4492474;31;33622;-71
2023/01/02 09:26:20;;;;;;;40.33;19.73;;;;;;;13.27;67.51;100885.94;4480965;31;33993;-71
2023/01/02 09:28:48;;;;;;;36.78;18.20;;;;;;;13.63;66.93;100880.84;4484085;31;31738;-71
2023/01/02 09:31:16;;;;;;;37.10;19.12;;;;;;;14.55;63.03;100880.03;4483326;32;35201;-71
2023/01/02 09:33:45;;;;;;;41.47;19.87;;;;;;;13.94;65.22;100871.09;4485441;31;33560;-71
2023/01/02 09:36:16;;;;;;;37.60;18.42;;;;;;;13.87;65.32;100871.63;4483793;32;35015;-71
2023/01/02 09:38:43;;;;;;;39.05;19.30;;;;;;;13.83;65.17;100871.41;4495221;31;36261;-72
2023/01/02 09:41:25;;;;;;;38.45;18.55;;;;;;;13.98;65.38;100873.84;4489506;31;34066;-71
2023/01/02 09:44:14;;;;;;;34.97;18.00;;;;;;;13.52;67.31;100862.06;4493996;31;34729;-71
2023/01/02 09:46:42;;;;;;;31.58;17.65;;;;;;;13.23;68.50;100857.97;4483891;31;33842;-71
2023/01/02 09:49:21;;;;;;;36.05;17.87;;;;;;;13.91;65.92;100857.94;4487922;31;33529;-71
2023/01/02 09:51:49;;;;;;;36.42;17.52;;;;;;;13.64;66.51;100856.59;4480919;31;33908;-71
2023/01/02 09:54:29;;;;;;;37.40;18.17;;;;;;;13.01;68.91;100850.78;4461987;32;33622;-71
2023/01/02 09:57:26;;;;;;;41.97;19.12;;;;;;;13.70;66.80;100851.69;4486017;31;35319;-71
2023/01/02 10:00:04;;;;;;;37.83;18.95;;;;;;;14.57;63.92;100836.69;4451440;31;33409;-71
2023/01/02 10:02:54;;;;;;;31.58;17.27;;;;;;;14.23;64.75;100840.31;4489380;31;33772;-72
2023/01/02 10:05:48;;;;;;;33.20;17.20;;;;;;;14.97;62.58;100827.13;4489294;31;33792;-72
2023/01/02 10:08:38;;;;;;;34.83;17.52;;;;;;;14.68;62.92;100834.56;4482276;31;34353;-72
2023/01/02 10:11:29;;;;;;;34.90;17.92;;;;;;;14.92;62.01;100834.75;4476509;31;33366;-71
2023/01/02 10:14:03;;;;;;;36.78;18.77;;;;;;;14.67;62.56;100838.00;4479283;31;33700;-71
2023/01/02 10:16:50;;;;;;;33.00;18.33;;;;;;;14.59;63.58;100839.38;4484491;31;33668;-71
2023/01/02 10:19:25;;;;;;;35.95;17.40;;;;;;;14.79;62.46;100832.44;4481548;31;34547;-71
2023/01/02 10:21:57;;;;;;;35.22;18.40;;;;;;;15.09;61.77;100820.72;4486935;31;33858;-71
2023/01/02 10:24:37;;;;;;;36.10;17.98;;;;;;;14.64;63.09;100823.13;4493885;31;33123;-71
2023/01/02 10:27:16;;;;;;;37.85;18.40;;;;;;;14.96;62.37;100818.41;4494392;31;33730;-71
2023/01/02 10:30:01;;;;;;;34.53;17.98;;;;;;;14.54;63.51;100818.25;4497394;31;34835;-71
2023/01/02 10:32:31;;;;;;;38.55;18.83;;;;;;;15.41;60.96;100805.50;4498915;31;33178;-71
2023/01/02 10:35:06;;;;;;;34.17;18.20;;;;;;;15.48;60.49;100807.56;4475314;31;33953;-71
2023/01/02 10:37:34;;;;;;;33.33;18.15;;;;;;;15.07;61.85;100811.94;4472801;31;34230;-71
2023/01/02 10:40:03;;;;;;;37.88;18.45;;;;;;;15.53;60.82;100811.25;4487878;31;34544;-71
2023/01/02 10:42:32;;;;;;;37.22;17.35;;;;;;;15.42;61.41;100812.53;4489588;31;33655;-71
2023/01/02 10:45:00;;;;;;;33.63;18.77;;;;;;;15.55;61.02;100808.72;4470144;31;34459;-71
2023/01/02 10:47:36;;;;;;;38.42;20.33;;;;;;;14.39;64.66;100794.13;4498404;31;34546;-71
2023/01/02 10:50:13;;;;;;;37.85;19.55;;;;;;;14.65;63.79;100788.38;4477892;31;34106;-71
2023/01/02 10:52:51;;;;;;;35.80;18.30;;;;;;;14.22;65.70;100781.22;4492787;31;34354;-71
2023/01/02 10:55:38;;;;;;;33.90;18.00;;;;;;;15.09;62.79;100771.16;4496697;31;33935;-71
2023/01/02 10:58:21;;;;;;;34.70;18.30;;;;;;;14.81;62.92;100774.28;4486227;31;34319;-71
2023/01/02 11:00:50;;;;;;;35.67;17.87;;;;;;;15.56;60.82;100763.47;4489177;31;33913;-71
2023/01/02 11:03:26;;;;;;;31.90;17.73;;;;;;;15.80;60.21;100773.13;4492482;31;34496;-71
2023/01/02 11:05:56;;;;;;;31.08;16.80;;;;;;;15.31;61.21;100778.12;4488710;31;34523;-71
2023/01/02 11:08:38;;;;;;;36.83;17.83;;;;;;;15.24;61.42;100770.91;4485962;31;35106;-71
2023/01/02 11:11:17;;;;;;;34.70;18.08;;;;;;;16.10;59.14;100773.44;4487610;31;34679;-71
2023/01/02 11:13:50;;;;;;;36.55;19.23;;;;;;;15.71;59.98;100769.31;4489815;31;33834;-71
2023/01/02 11:16:23;;;;;;;32.45;18.23;;;;;;;16.10;59.05;100768.22;4485928;32;33927;-71
2023/01/02 11:18:57;;;;;;;34.35;18.45;;;;;;;16.17;58.81;100753.62;4487233;31;34588;-71
2023/01/02 11:21:27;;;;;;;35.67;19.00;;;;;;;16.22;58.35;100752.97;4478832;31;34120;-71
2023/01/02 11:24:15;;;;;;;32.35;18.15;;;;;;;15.52;60.73;100757.22;4491178;31;32918;-71
2023/01/02 11:26:45;;;;;;;31.15;18.27;;;;;;;15.75;60.49;100757.28;4495666;31;34473;-71
2023/01/02 11:29:30;;;;;;;31.70;18.00;;;;;;;15.60;60.92;100744.47;4499482;31;33885;-71
2023/01/02 11:32:00;;;;;;;32.35;17.55;;;;;;;15.78;60.28;100752.22;4483976;31;33862;-71
2023/01/02 11:34:33;;;;;;;38.05;19.67;;;;;;;16.05;59.71;100738.37;4475746;31;35196;-71